createdAt,value
2018-06-05T00:01:04.532Z,74.20
2018-06-05T00:03:38.751Z,74.30
2018-06-05T00:08:47.255Z,74.00
2018-06-05T00:11:21.458Z,74.50
2018-06-05T00:13:55.706Z,74.50
2018-06-05T00:16:30.070Z,74.30
2018-06-05T00:19:04.399Z,74.60
2018-06-05T00:21:38.818Z,74.50
2018-06-05T00:26:47.295Z,75.30
2018-06-05T00:29:21.519Z,75.50
2018-06-05T00:31:55.818Z,75.30
2018-06-05T00:34:30.168Z,75.90
2018-06-05T00:37:04.599Z,75.40
2018-06-05T00:39:38.875Z,75.60
2018-06-05T00:42:13.227Z,76.20
2018-06-05T00:44:47.487Z,75.60
2018-06-05T00:47:21.646Z,75.90
2018-06-05T00:49:55.847Z,76.00
2018-06-05T00:52:30.203Z,75.70
2018-06-05T00:55:04.646Z,76.10
2018-06-05T00:57:38.900Z,75.80
2018-06-05T01:00:13.117Z,75.80
2018-06-05T01:02:47.464Z,75.80
2018-06-05T01:05:21.810Z,75.60
2018-06-05T01:07:56.151Z,76.50
2018-06-05T01:10:30.415Z,77.50
2018-06-05T01:13:04.816Z,77.90
2018-06-05T01:15:39.152Z,77.80
2018-06-05T01:18:13.462Z,78.00
2018-06-05T01:20:47.769Z,77.70
2018-06-05T01:23:22.142Z,77.50
2018-06-05T01:25:56.371Z,77.80
2018-06-05T01:28:30.695Z,77.60
2018-06-05T01:31:05.020Z,77.30
2018-06-05T01:33:39.426Z,77.80
2018-06-05T01:36:13.765Z,77.50
2018-06-05T01:38:48.121Z,77.20
2018-06-05T01:41:22.382Z,78.10
2018-06-05T01:43:56.612Z,78.20
2018-06-05T01:46:30.826Z,77.90
2018-06-05T01:49:05.104Z,77.60
2018-06-05T01:51:39.438Z,77.00
2018-06-05T01:54:13.799Z,76.20
2018-06-05T01:56:47.971Z,76.10
2018-06-05T01:59:22.275Z,75.90
2018-06-05T02:01:56.586Z,76.00
2018-06-05T02:04:30.938Z,75.60
2018-06-05T02:07:05.144Z,75.60
2018-06-05T02:09:39.351Z,75.40
2018-06-05T02:12:13.583Z,75.90
2018-06-05T02:14:48.028Z,75.50
2018-06-05T02:17:22.234Z,75.90
2018-06-05T02:19:56.444Z,75.50
2018-06-05T02:22:30.623Z,74.50
2018-06-05T02:25:05.114Z,75.30
2018-06-05T02:27:39.542Z,75.10
2018-06-05T02:30:13.921Z,74.90
2018-06-05T02:32:48.082Z,75.60
2018-06-05T02:35:22.410Z,75.00
2018-06-05T02:37:56.715Z,75.20
2018-06-05T02:40:31.104Z,75.40
2018-06-05T02:43:05.410Z,75.00
2018-06-05T02:45:39.701Z,74.80
2018-06-05T02:48:14.030Z,75.10
2018-06-05T02:50:48.242Z,75.30
2018-06-05T02:53:22.385Z,75.40
2018-06-05T02:55:56.675Z,75.70
2018-06-05T02:58:30.870Z,75.90
2018-06-05T03:01:05.077Z,75.90
2018-06-05T03:03:39.378Z,75.80
2018-06-05T03:06:13.594Z,76.80
2018-06-05T03:08:47.787Z,76.40
2018-06-05T03:11:22.021Z,76.20
2018-06-05T03:13:56.383Z,74.70
2018-06-05T03:16:30.774Z,75.20
2018-06-05T03:19:04.922Z,75.40
2018-06-05T03:21:39.262Z,75.70
2018-06-05T03:24:13.416Z,75.90
2018-06-05T03:26:47.832Z,75.20
2018-06-05T03:29:22.061Z,75.70
2018-06-05T03:31:56.478Z,75.80
2018-06-05T03:34:30.800Z,75.60
2018-06-05T03:37:05.095Z,75.40
2018-06-05T03:39:39.417Z,74.70
2018-06-05T03:42:13.722Z,75.80
2018-06-05T03:44:48.124Z,76.10
2018-06-05T03:47:22.385Z,76.60
2018-06-05T03:49:56.693Z,76.10
2018-06-05T03:52:31.126Z,76.60
2018-06-05T03:55:05.450Z,76.80
2018-06-05T03:57:39.625Z,76.30
2018-06-05T04:00:14.011Z,76.10
2018-06-05T04:02:48.318Z,76.10
2018-06-05T04:05:22.699Z,76.30
2018-06-05T04:07:56.895Z,76.00
2018-06-05T04:10:31.264Z,76.50
2018-06-05T04:13:05.684Z,76.50
2018-06-05T04:15:39.964Z,77.00
2018-06-05T04:18:14.181Z,77.50
2018-06-05T04:20:48.466Z,77.00
2018-06-05T04:23:22.639Z,76.80
2018-06-05T04:25:56.942Z,76.90
2018-06-05T04:28:31.213Z,77.10
2018-06-05T04:31:05.452Z,77.00
2018-06-05T04:33:39.945Z,77.40
2018-06-05T04:36:14.233Z,77.20
2018-06-05T04:38:48.618Z,77.80
2018-06-05T04:41:22.802Z,77.50
2018-06-05T04:43:57.187Z,77.50
2018-06-05T04:46:31.478Z,77.40
2018-06-05T04:49:05.789Z,78.60
2018-06-05T04:51:40.056Z,78.60
2018-06-05T04:54:14.227Z,78.70
2018-06-05T04:56:48.450Z,77.90
2018-06-05T04:59:22.710Z,77.50
2018-06-05T05:01:57.007Z,78.00
2018-06-05T05:04:31.460Z,77.70
2018-06-05T05:07:05.810Z,77.40
2018-06-05T05:09:40.164Z,77.70
2018-06-05T05:12:14.432Z,77.50
2018-06-05T05:14:48.752Z,78.90
2018-06-05T05:17:22.974Z,78.50
2018-06-05T05:19:57.337Z,78.20
2018-06-05T05:22:31.631Z,77.90
2018-06-05T05:25:05.886Z,77.90
2018-06-05T05:27:40.092Z,77.50
2018-06-05T05:30:14.331Z,77.80
2018-06-05T05:32:48.719Z,77.90
2018-06-05T05:35:23.000Z,77.60
2018-06-05T05:37:57.258Z,77.70
2018-06-05T05:40:31.656Z,77.90
2018-06-05T05:45:40.006Z,77.40
2018-06-05T05:48:14.416Z,76.00
2018-06-05T05:53:22.878Z,76.20
2018-06-05T05:55:57.195Z,75.50
2018-06-05T05:58:31.550Z,75.50
2018-06-05T06:01:05.818Z,75.80
2018-06-05T06:03:40.310Z,76.20
2018-06-05T06:06:14.529Z,76.90
2018-06-05T06:08:48.817Z,77.50
2018-06-05T06:11:22.975Z,78.00
2018-06-05T06:13:57.397Z,77.60
2018-06-05T06:16:31.721Z,77.90
2018-06-05T06:19:06.141Z,77.20
2018-06-05T06:21:40.282Z,76.90
2018-06-05T06:24:14.486Z,77.40
2018-06-05T06:26:48.743Z,77.40
2018-06-05T06:29:23.007Z,76.50
2018-06-05T06:31:57.312Z,76.50
2018-06-05T06:34:31.573Z,77.00
2018-06-05T06:37:05.954Z,77.60
2018-06-05T06:42:14.275Z,77.30
2018-06-05T06:44:48.435Z,76.40
2018-06-05T06:47:22.626Z,75.90
2018-06-05T06:49:56.931Z,76.30
2018-06-05T06:52:31.096Z,76.00
2018-06-05T06:55:05.387Z,76.20
2018-06-05T06:57:39.592Z,76.30
2018-06-05T07:00:13.924Z,76.70
2018-06-05T07:02:48.205Z,76.00
2018-06-05T07:05:22.554Z,75.70
2018-06-05T07:07:56.797Z,75.40
2018-06-05T07:10:31.011Z,75.50
2018-06-05T07:18:13.529Z,76.00
2018-06-05T07:20:47.787Z,76.00
2018-06-05T07:23:22.011Z,75.20
2018-06-05T07:25:56.220Z,75.50
2018-06-05T07:28:30.508Z,76.30
2018-06-05T07:31:04.875Z,75.80
2018-06-05T07:33:39.138Z,75.40
2018-06-05T07:36:13.494Z,75.30
2018-06-05T07:38:47.683Z,75.90
2018-06-05T07:41:22.135Z,76.40
2018-06-05T07:43:56.432Z,76.20
2018-06-05T07:46:30.704Z,76.80
2018-06-05T07:49:05.003Z,75.90
2018-06-05T07:51:39.240Z,75.40
2018-06-05T07:54:13.536Z,75.70
2018-06-05T07:56:47.898Z,76.00
2018-06-05T07:59:22.130Z,75.80
2018-06-05T08:01:56.306Z,75.60
2018-06-05T08:07:04.695Z,75.70
2018-06-05T08:09:38.974Z,75.60
2018-06-05T08:12:13.374Z,75.60
2018-06-05T08:14:47.687Z,76.10
2018-06-05T08:17:22.119Z,76.10
2018-06-05T08:19:56.454Z,76.50
2018-06-05T08:22:40.963Z,77.40
2018-06-05T08:25:15.300Z,77.00
2018-06-05T08:27:49.472Z,76.40
2018-06-05T08:30:23.704Z,77.90
2018-06-05T08:32:57.990Z,77.50
2018-06-05T08:35:32.213Z,77.10
2018-06-05T08:38:06.535Z,76.80
2018-06-05T08:40:41.007Z,75.60
2018-06-05T08:43:15.299Z,75.70
2018-06-05T08:45:49.622Z,76.30
2018-06-05T08:48:23.942Z,76.50
2018-06-05T08:50:58.262Z,76.90
2018-06-05T08:53:32.498Z,76.60
2018-06-05T08:56:06.763Z,77.10
2018-06-05T08:58:41.027Z,76.80
2018-06-05T09:01:15.298Z,77.00
2018-06-05T09:03:49.629Z,76.80
2018-06-05T09:06:23.878Z,78.20
2018-06-05T09:08:58.084Z,76.30
2018-06-05T09:11:32.364Z,76.40
2018-06-05T09:14:06.550Z,75.50
2018-06-05T09:16:40.858Z,76.00
2018-06-05T09:19:15.282Z,75.90
2018-06-05T09:21:49.598Z,76.00
2018-06-05T09:24:23.897Z,76.40
2018-06-05T09:26:58.115Z,75.90
2018-06-05T09:32:06.446Z,76.00
2018-06-05T09:34:40.727Z,74.90
2018-06-05T09:37:15.074Z,74.40
2018-06-05T09:39:49.387Z,75.60
2018-06-05T09:42:23.698Z,74.10
2018-06-05T09:44:57.943Z,73.30
2018-06-05T09:47:32.139Z,74.00
2018-06-05T09:50:06.439Z,74.20
2018-06-05T09:52:40.849Z,73.60
2018-06-05T09:55:15.011Z,73.10
2018-06-05T09:57:49.334Z,74.00
2018-06-05T10:00:28.926Z,74.30
2018-06-05T10:03:03.087Z,73.20
2018-06-05T10:05:37.502Z,73.50
2018-06-05T10:08:11.866Z,73.40
2018-06-05T10:10:46.120Z,73.50
2018-06-05T10:13:20.403Z,73.40
2018-06-05T10:15:54.698Z,74.00
2018-06-05T10:18:29.066Z,73.50
2018-06-05T10:21:03.382Z,73.70
2018-06-05T10:23:37.543Z,72.80
2018-06-05T10:26:12.032Z,71.80
2018-06-05T10:28:46.437Z,73.40
2018-06-05T10:31:20.627Z,73.70
2018-06-05T10:33:54.831Z,72.60
2018-06-05T10:36:29.084Z,71.60
2018-06-05T10:39:03.450Z,72.20
2018-06-05T10:41:37.595Z,71.50
2018-06-05T10:44:11.951Z,72.50
2018-06-05T10:46:46.164Z,72.40
2018-06-05T10:49:20.450Z,71.40
2018-06-05T10:51:54.827Z,72.50
2018-06-05T10:54:29.171Z,72.80
2018-06-05T10:57:03.483Z,71.10
2018-06-05T10:59:37.613Z,72.50
2018-06-05T11:04:45.886Z,69.90
2018-06-05T11:07:20.277Z,70.20
2018-06-05T11:09:54.600Z,69.90
2018-06-05T11:12:28.875Z,72.80
2018-06-05T11:15:03.280Z,71.60
2018-06-05T11:17:37.525Z,69.80
2018-06-05T11:20:11.855Z,70.10
2018-06-05T11:22:46.130Z,70.20
2018-06-05T11:25:20.445Z,68.20
2018-06-05T11:27:54.654Z,68.90
2018-06-05T11:30:28.933Z,68.50
2018-06-05T11:33:03.391Z,68.30
2018-06-05T11:35:37.794Z,68.50
2018-06-05T11:38:12.107Z,67.70
2018-06-05T11:40:46.389Z,68.60
2018-06-05T11:43:20.731Z,67.80
2018-06-05T11:45:55.027Z,68.60
2018-06-05T11:48:29.395Z,68.30
2018-06-05T11:51:03.686Z,67.60
2018-06-05T11:53:38.043Z,69.20
2018-06-05T11:56:12.247Z,68.80
2018-06-05T11:58:46.573Z,68.50
2018-06-05T12:01:20.919Z,68.30
2018-06-05T12:03:55.137Z,68.10
2018-06-05T12:09:03.610Z,67.20
2018-06-05T12:11:37.739Z,67.80
2018-06-05T12:14:12.094Z,66.90
2018-06-05T12:16:46.243Z,66.80
2018-06-05T12:19:20.672Z,66.40
2018-06-05T12:21:54.927Z,65.90
2018-06-05T12:24:29.387Z,66.70
2018-06-05T12:27:03.713Z,64.30
2018-06-05T12:29:38.077Z,63.10
2018-06-05T12:32:12.434Z,64.90
2018-06-05T12:34:46.778Z,63.00
2018-06-05T12:37:21.076Z,64.30
2018-06-05T12:39:55.258Z,61.50
2018-06-05T12:42:29.503Z,60.00
2018-06-05T12:45:03.790Z,58.10
2018-06-05T12:47:38.170Z,58.10
2018-06-05T12:50:12.482Z,57.90
2018-06-05T12:52:46.827Z,57.50
2018-06-05T12:55:22.690Z,56.70
2018-06-05T12:57:57.070Z,56.20
2018-06-05T13:00:31.361Z,57.50
2018-06-05T13:03:05.696Z,56.30
2018-06-05T13:05:40.071Z,55.60
2018-06-05T13:08:14.323Z,55.50
2018-06-05T13:10:48.654Z,54.70
2018-06-05T13:13:22.823Z,54.50
2018-06-05T13:15:57.316Z,55.30
2018-06-05T13:18:31.702Z,53.30
2018-06-05T13:21:06.343Z,52.80
2018-06-05T13:23:40.880Z,54.00
2018-06-05T13:26:15.550Z,52.60
2018-06-05T13:28:49.850Z,52.30
2018-06-05T13:31:24.126Z,55.40
2018-06-05T13:33:58.333Z,52.70
2018-06-05T13:36:32.700Z,54.40
2018-06-05T13:39:08.418Z,52.90
2018-06-05T13:41:42.658Z,52.30
2018-06-05T13:44:16.831Z,52.80
2018-06-05T13:46:51.075Z,51.40
2018-06-05T13:49:25.313Z,51.20
2018-06-05T13:54:33.710Z,49.90
2018-06-05T13:57:08.014Z,52.10
2018-06-05T13:59:42.316Z,52.10
2018-06-05T14:02:16.618Z,52.00
2018-06-05T14:04:51.008Z,51.90
2018-06-05T14:07:25.363Z,50.60
2018-06-05T14:09:59.871Z,50.20
2018-06-05T14:12:34.203Z,49.90
2018-06-05T14:15:08.410Z,50.80
2018-06-05T14:17:42.723Z,50.80
2018-06-05T14:20:16.930Z,51.30
2018-06-05T14:22:51.238Z,49.70
2018-06-05T14:25:25.587Z,50.50
2018-06-05T14:27:59.918Z,49.10
2018-06-05T14:30:34.154Z,49.00
2018-06-05T14:33:08.499Z,50.10
2018-06-05T14:35:42.698Z,49.60
2018-06-05T14:38:16.925Z,48.80
2018-06-05T14:40:51.321Z,49.40
2018-06-05T14:43:25.762Z,48.80
2018-06-05T14:46:00.171Z,49.50
2018-06-05T14:48:34.581Z,48.20
2018-06-05T14:51:08.783Z,47.60
2018-06-05T14:53:43.045Z,51.40
2018-06-05T14:56:17.458Z,48.90
2018-06-05T14:58:51.795Z,50.50
2018-06-05T15:01:26.122Z,47.90
2018-06-05T15:04:00.362Z,48.70
2018-06-05T15:06:34.690Z,48.30
2018-06-05T15:09:09.149Z,48.50
2018-06-05T15:11:43.378Z,47.60
2018-06-05T15:14:17.661Z,46.50
2018-06-05T15:16:51.866Z,48.20
2018-06-05T15:19:26.138Z,49.60
2018-06-05T15:22:01.190Z,50.00
2018-06-05T15:24:35.701Z,48.90
2018-06-05T15:27:09.996Z,47.80
2018-06-05T15:29:44.319Z,48.90
2018-06-05T15:32:18.618Z,48.50
2018-06-05T15:34:53.006Z,47.30
2018-06-05T15:37:27.318Z,45.30
2018-06-05T15:40:01.646Z,47.90
2018-06-05T15:42:36.227Z,48.20
2018-06-05T15:45:10.693Z,46.90
2018-06-05T15:47:45.023Z,46.20
2018-06-05T15:50:19.226Z,45.30
2018-06-05T15:52:53.443Z,47.00
2018-06-05T15:55:27.794Z,47.60
2018-06-05T15:58:02.092Z,48.00
2018-06-05T16:00:36.397Z,45.50
2018-06-05T16:03:10.803Z,46.30
2018-06-05T16:05:45.128Z,46.10
2018-06-05T16:08:19.390Z,47.10
2018-06-05T16:10:53.704Z,45.90
2018-06-05T16:13:28.054Z,45.70
2018-06-05T16:16:02.274Z,44.00
2018-06-05T16:18:36.616Z,45.00
2018-06-05T16:21:10.927Z,45.90
2018-06-05T16:23:45.468Z,46.10
2018-06-05T16:26:19.907Z,46.30
2018-06-05T16:31:28.218Z,45.70
2018-06-05T16:34:02.466Z,44.30
2018-06-05T16:36:36.758Z,45.40
2018-06-05T16:39:11.129Z,44.80
2018-06-05T16:41:45.570Z,45.90
2018-06-05T16:44:19.902Z,43.10
2018-06-05T16:46:54.114Z,44.70
2018-06-05T16:49:28.342Z,44.00
2018-06-05T16:52:02.774Z,44.60
2018-06-05T16:54:37.371Z,44.50
2018-06-05T16:57:11.667Z,44.90
2018-06-05T16:59:45.824Z,45.20
2018-06-05T17:02:20.099Z,43.60
2018-06-05T17:04:54.409Z,44.20
2018-06-05T17:07:28.746Z,43.20
2018-06-05T17:10:03.072Z,43.40
2018-06-05T17:12:37.409Z,43.60
2018-06-05T17:15:11.592Z,44.40
2018-06-05T17:17:45.862Z,44.40
2018-06-05T17:20:20.112Z,44.80
2018-06-05T17:22:54.435Z,44.80
2018-06-05T17:25:28.704Z,44.10
2018-06-05T17:30:37.158Z,46.10
2018-06-05T17:33:11.641Z,45.30
2018-06-05T17:35:45.894Z,45.70
2018-06-05T17:38:20.186Z,45.30
2018-06-05T17:40:54.507Z,45.50
2018-06-05T17:43:28.835Z,45.60
2018-06-05T17:46:03.175Z,45.50
2018-06-05T17:48:37.454Z,45.80
2018-06-05T17:51:11.700Z,44.90
2018-06-05T17:53:46.059Z,45.40
2018-06-05T17:56:20.217Z,46.90
2018-06-05T17:58:54.542Z,46.70
2018-06-05T18:01:28.795Z,45.70
2018-06-05T18:06:37.162Z,46.60
2018-06-05T18:09:11.489Z,47.20
2018-06-05T18:11:45.809Z,47.10
2018-06-05T18:14:20.118Z,47.10
2018-06-05T18:16:54.403Z,47.30
2018-06-05T18:19:28.727Z,48.50
2018-06-05T18:22:03.190Z,48.70
2018-06-05T18:24:37.408Z,49.80
2018-06-05T18:27:11.693Z,50.50
2018-06-05T18:29:45.994Z,51.10
2018-06-05T18:32:20.615Z,51.70
2018-06-05T18:34:54.999Z,52.80
2018-06-05T18:37:29.260Z,52.90
2018-06-05T18:40:03.602Z,53.20
2018-06-05T18:42:37.914Z,53.60
2018-06-05T18:45:12.131Z,54.80
2018-06-05T18:47:46.565Z,54.50
2018-06-05T18:50:21.206Z,55.40
2018-06-05T18:52:55.803Z,55.20
2018-06-05T18:55:30.028Z,56.70
2018-06-05T18:58:04.455Z,57.60
2018-06-05T19:00:38.795Z,58.10
2018-06-05T19:03:13.275Z,58.70
2018-06-05T19:05:47.595Z,59.10
2018-06-05T19:08:21.910Z,59.10
2018-06-05T19:10:56.053Z,59.00
2018-06-05T19:13:30.374Z,60.00
2018-06-05T19:16:04.803Z,60.50
2018-06-05T19:18:39.158Z,60.40
2018-06-05T19:21:13.451Z,60.40
2018-06-05T19:23:47.892Z,61.30
2018-06-05T19:26:22.396Z,61.70
2018-06-05T19:28:56.584Z,62.80
2018-06-05T19:31:30.907Z,62.90
2018-06-05T19:34:05.333Z,63.20
2018-06-05T19:36:39.654Z,63.70
2018-06-05T19:39:13.955Z,63.90
2018-06-05T19:41:48.404Z,63.50
2018-06-05T19:44:22.795Z,64.30
2018-06-05T19:46:57.116Z,63.80
2018-06-05T19:49:31.607Z,64.00
2018-06-05T19:52:05.897Z,64.60
2018-06-05T19:54:40.266Z,65.10
2018-06-05T19:57:14.617Z,65.20
2018-06-05T19:59:48.868Z,65.30
2018-06-05T20:02:23.135Z,65.30
2018-06-05T20:04:57.382Z,66.20
2018-06-05T20:07:31.578Z,65.80
2018-06-05T20:10:05.933Z,66.00
2018-06-05T20:15:14.446Z,66.80
2018-06-05T20:17:48.775Z,66.30
2018-06-05T20:20:23.053Z,66.60
2018-06-05T20:22:57.338Z,66.60
2018-06-05T20:25:31.550Z,67.30
2018-06-05T20:28:05.876Z,66.90
2018-06-05T20:30:40.187Z,67.30
2018-06-05T20:33:14.499Z,67.70
2018-06-05T20:38:22.777Z,68.10
2018-06-05T20:40:56.968Z,69.80
2018-06-05T20:43:31.330Z,68.80
2018-06-05T20:46:05.749Z,68.70
2018-06-05T20:48:40.151Z,69.60
2018-06-05T20:51:14.483Z,69.70
2018-06-05T20:53:48.826Z,69.70
2018-06-05T20:56:23.072Z,69.90
2018-06-05T20:58:57.378Z,69.60
2018-06-05T21:01:31.723Z,70.00
2018-06-05T21:06:40.115Z,70.40
2018-06-05T21:09:14.418Z,70.70
2018-06-05T21:11:48.784Z,70.50
2018-06-05T21:14:23.043Z,70.50
2018-06-05T21:16:57.340Z,70.30
2018-06-05T21:19:31.669Z,70.90
2018-06-05T21:22:06.069Z,70.70
2018-06-05T21:24:40.418Z,71.00
2018-06-05T21:27:14.641Z,71.00
2018-06-05T21:29:49.003Z,71.10
2018-06-05T21:32:23.419Z,72.10
2018-06-05T21:34:57.771Z,71.90
2018-06-05T21:37:32.018Z,71.60
2018-06-05T21:40:07.057Z,72.10
2018-06-05T21:42:42.638Z,71.70
2018-06-05T21:45:16.889Z,70.90
2018-06-05T21:47:51.314Z,72.50
2018-06-05T21:50:25.574Z,71.50
2018-06-05T21:52:59.855Z,71.60
2018-06-05T21:55:34.231Z,71.80
2018-06-05T21:58:08.451Z,71.60
2018-06-05T22:00:42.812Z,72.00
2018-06-05T22:03:17.127Z,72.70
2018-06-05T22:05:51.486Z,71.90
2018-06-05T22:08:25.754Z,71.70
2018-06-05T22:10:59.999Z,72.30
2018-06-05T22:13:34.150Z,72.70
2018-06-05T22:16:08.665Z,71.70
2018-06-05T22:18:42.837Z,72.90
2018-06-05T22:21:17.266Z,73.10
2018-06-05T22:23:51.562Z,72.40
2018-06-05T22:26:25.795Z,72.30
2018-06-05T22:29:00.104Z,72.30
2018-06-05T22:31:34.415Z,72.20
2018-06-05T22:34:08.600Z,72.10
2018-06-05T22:36:42.767Z,72.20
2018-06-05T22:39:17.217Z,71.80
2018-06-05T22:41:51.528Z,72.40
2018-06-05T22:44:25.737Z,72.50
2018-06-05T22:47:06.780Z,72.80
2018-06-05T22:49:41.250Z,72.00
2018-06-05T22:52:15.605Z,72.40
2018-06-05T22:54:49.925Z,73.10
2018-06-05T22:57:24.468Z,72.80
2018-06-05T22:59:59.162Z,72.90
2018-06-05T23:02:33.319Z,73.60
2018-06-05T23:05:07.868Z,73.50
2018-06-05T23:07:42.036Z,72.50
2018-06-05T23:10:16.439Z,73.00
2018-06-05T23:12:50.806Z,72.80
2018-06-05T23:15:25.355Z,74.10
2018-06-05T23:17:59.538Z,74.70
2018-06-05T23:20:33.863Z,74.00
2018-06-05T23:23:08.142Z,74.60
2018-06-05T23:25:42.510Z,73.90
2018-06-05T23:28:16.892Z,73.50
2018-06-05T23:30:51.274Z,73.80
2018-06-05T23:33:25.523Z,73.70
2018-06-05T23:35:59.795Z,74.00
2018-06-05T23:38:34.093Z,74.30
2018-06-05T23:41:08.529Z,73.70
2018-06-05T23:43:42.899Z,73.70
2018-06-05T23:46:18.458Z,74.60
2018-06-05T23:51:27.011Z,75.40
2018-06-05T23:54:01.241Z,74.60
2018-06-05T23:56:35.387Z,74.50
2018-06-05T23:59:10.143Z,74.50
